createdAt,value
2022-12-01T00:01:26.236Z,102202.19
2022-12-01T00:03:54.322Z,102207.69
2022-12-01T00:06:21.937Z,102230.06
2022-12-01T00:09:09.969Z,102222.16
2022-12-01T00:11:38.775Z,102205.03
2022-12-01T00:14:06.647Z,102202.09
2022-12-01T00:16:34.487Z,102243.47
2022-12-01T00:19:01.639Z,102195.69
2022-12-01T00:21:29.567Z,102223.19
2022-12-01T00:23:58.116Z,102195.22
2022-12-01T00:26:27.361Z,102212.41
2022-12-01T00:28:59.503Z,102244.56
2022-12-01T00:31:27.534Z,102206.19
2022-12-01T00:33:55.671Z,102208.41
2022-12-01T00:36:23.440Z,102198.66
2022-12-01T00:38:55.786Z,102199.16
2022-12-01T00:41:25.330Z,102221.91
2022-12-01T00:43:54.814Z,102169.81
2022-12-01T00:46:22.182Z,102229.66
2022-12-01T00:48:49.332Z,102172.81
2022-12-01T00:51:17.395Z,102193.19
2022-12-01T00:53:44.424Z,102202.09
2022-12-01T00:56:11.694Z,102177.06
2022-12-01T00:58:39.000Z,102214.66
2022-12-01T01:01:07.708Z,102194.38
2022-12-01T01:03:35.588Z,102190.22
2022-12-01T01:06:08.919Z,102204.59
2022-12-01T01:08:36.313Z,102194.44
2022-12-01T01:11:04.081Z,102157.13
2022-12-01T01:13:31.508Z,102167.75
2022-12-01T01:16:08.125Z,102175.09
2022-12-01T01:18:35.270Z,102188.63
2022-12-01T01:21:12.692Z,102178.84
2022-12-01T01:23:40.634Z,102189.84
2022-12-01T01:26:13.017Z,102169.41
2022-12-01T01:28:41.869Z,102185.28
2022-12-01T01:31:11.848Z,102180.84
2022-12-01T01:33:39.457Z,102155.81
2022-12-01T01:36:07.460Z,102168.66
2022-12-01T01:38:35.411Z,102180.94
2022-12-01T01:41:03.785Z,102174.50
2022-12-01T01:43:42.780Z,102182.34
2022-12-01T01:46:18.402Z,102173.75
2022-12-01T01:48:54.000Z,102180.72
2022-12-01T01:51:27.295Z,102156.94
2022-12-01T01:53:59.240Z,102184.25
2022-12-01T01:56:26.452Z,102145.31
2022-12-01T01:58:53.813Z,102159.38
2022-12-01T02:01:22.133Z,102186.69
2022-12-01T02:03:52.619Z,102166.53
2022-12-01T02:06:20.152Z,102143.50
2022-12-01T02:08:47.999Z,102162.66
2022-12-01T02:11:29.184Z,102156.56
2022-12-01T02:14:13.632Z,102143.59
2022-12-01T02:16:50.930Z,102150.22
2022-12-01T02:20:02.145Z,102145.66
2022-12-01T02:22:54.655Z,102161.78
2022-12-01T02:25:33.509Z,102144.78
2022-12-01T02:28:28.111Z,102144.00
2022-12-01T02:31:24.959Z,102151.56
2022-12-01T02:33:57.958Z,102149.22
2022-12-01T02:36:39.635Z,102139.06
2022-12-01T02:39:28.881Z,102156.84
2022-12-01T02:42:08.768Z,102166.41
2022-12-01T02:44:42.518Z,102153.81
2022-12-01T02:47:16.249Z,102132.91
2022-12-01T02:49:52.390Z,102151.91
2022-12-01T02:52:24.100Z,102165.78
2022-12-01T02:54:53.433Z,102135.09
2022-12-01T02:57:24.661Z,102147.47
2022-12-01T02:59:55.436Z,102165.91
2022-12-01T03:02:27.732Z,102154.72
2022-12-01T03:05:12.851Z,102131.63
2022-12-01T03:07:51.835Z,102197.78
2022-12-01T03:10:48.669Z,102160.19
2022-12-01T03:13:30.885Z,102151.28
2022-12-01T03:16:07.127Z,102160.19
2022-12-01T03:19:09.241Z,102148.84
2022-12-01T03:21:41.860Z,102168.31
2022-12-01T03:24:16.750Z,102171.06
2022-12-01T03:26:48.700Z,102145.63
2022-12-01T03:29:25.311Z,102177.13
2022-12-01T03:31:59.453Z,102162.81
2022-12-01T03:34:55.357Z,102173.13
2022-12-01T03:37:25.591Z,102167.09
2022-12-01T03:40:00.313Z,102163.69
2022-12-01T03:42:31.095Z,102163.13
2022-12-01T03:45:01.636Z,102140.78
2022-12-01T03:47:37.383Z,102141.63
2022-12-01T03:50:08.251Z,102162.94
2022-12-01T03:53:24.593Z,102169.19
2022-12-01T03:55:59.601Z,102141.28
2022-12-01T03:58:30.802Z,102159.44
2022-12-01T04:00:59.445Z,102177.09
2022-12-01T04:03:27.211Z,102156.97
2022-12-01T04:05:54.485Z,102155.81
2022-12-01T04:08:22.342Z,102155.19
2022-12-01T04:10:49.972Z,102131.94
2022-12-01T04:13:23.546Z,102132.22
2022-12-01T04:15:53.468Z,102148.50
2022-12-01T04:18:21.270Z,102142.97
2022-12-01T04:20:50.438Z,102140.78
2022-12-01T04:23:35.940Z,102142.78
2022-12-01T04:26:05.187Z,102171.91
2022-12-01T04:28:32.256Z,102156.41
2022-12-01T04:30:59.675Z,102139.06
2022-12-01T04:33:26.875Z,102145.63
2022-12-01T04:35:59.400Z,102156.41
2022-12-01T04:38:30.929Z,102146.84
2022-12-01T04:40:58.633Z,102160.63
2022-12-01T04:43:25.688Z,102172.44
2022-12-01T04:45:53.001Z,102158.06
2022-12-01T04:48:20.261Z,102162.16
2022-12-01T04:50:49.993Z,102162.53
2022-12-01T04:53:17.150Z,102174.66
2022-12-01T04:55:44.416Z,102142.59
2022-12-01T04:58:11.671Z,102178.41
2022-12-01T05:00:39.390Z,102175.38
2022-12-01T05:03:14.920Z,102126.28
2022-12-01T05:05:43.502Z,102168.19
2022-12-01T05:08:13.420Z,102167.44
2022-12-01T05:10:40.548Z,102200.41
2022-12-01T05:13:08.053Z,102172.06
2022-12-01T05:15:35.375Z,102167.63
2022-12-01T05:18:03.050Z,102169.81
2022-12-01T05:20:48.690Z,102159.44
2022-12-01T05:23:17.339Z,102200.28
2022-12-01T05:25:45.755Z,102183.53
2022-12-01T05:28:14.179Z,102184.78
2022-12-01T05:30:41.423Z,102175.13
2022-12-01T05:33:09.735Z,102147.72
2022-12-01T05:35:37.121Z,102194.03
2022-12-01T05:38:08.014Z,102168.50
2022-12-01T05:40:37.211Z,102192.03
2022-12-01T05:43:04.940Z,102172.72
2022-12-01T05:45:33.521Z,102190.88
2022-12-01T05:48:02.432Z,102188.09
2022-12-01T05:50:31.589Z,102183.94
2022-12-01T05:53:01.298Z,102210.91
2022-12-01T05:55:28.385Z,102180.16
2022-12-01T05:57:55.818Z,102185.00
2022-12-01T06:00:22.984Z,102187.25
2022-12-01T06:02:50.218Z,102176.69
2022-12-01T06:05:19.864Z,102176.66
2022-12-01T06:07:47.100Z,102128.19
2022-12-01T06:10:14.389Z,102176.72
2022-12-01T06:12:41.664Z,102171.91
2022-12-01T06:15:11.937Z,102191.00
2022-12-01T06:17:40.544Z,102190.50
2022-12-01T06:20:09.944Z,102195.63
2022-12-01T06:22:37.350Z,102188.59
2022-12-01T06:25:04.950Z,102163.66
2022-12-01T06:27:32.096Z,102189.53
2022-12-01T06:29:59.114Z,102179.63
2022-12-01T06:32:26.318Z,102187.81
2022-12-01T06:34:53.756Z,102181.91
2022-12-01T06:37:20.962Z,102166.72
2022-12-01T06:39:48.459Z,102176.06
2022-12-01T06:42:15.924Z,102172.22
2022-12-01T06:44:43.253Z,102165.84
2022-12-01T06:47:10.412Z,102186.53
2022-12-01T06:49:38.428Z,102192.09
2022-12-01T06:52:05.922Z,102175.16
2022-12-01T06:54:33.658Z,102182.38
2022-12-01T06:57:00.818Z,102170.41
2022-12-01T06:59:28.394Z,102182.19
2022-12-01T07:01:57.758Z,102159.63
2022-12-01T07:04:24.873Z,102171.50
2022-12-01T07:06:51.913Z,102179.38
2022-12-01T07:09:19.203Z,102178.31
2022-12-01T07:11:46.365Z,102178.63
2022-12-01T07:14:23.780Z,102192.28
2022-12-01T07:16:51.570Z,102183.22
2022-12-01T07:19:19.183Z,102180.97
2022-12-01T07:21:46.572Z,102212.84
2022-12-01T07:24:14.153Z,102181.97
2022-12-01T07:26:42.275Z,102190.69
2022-12-01T07:29:10.891Z,102172.50
2022-12-01T07:31:39.136Z,102186.19
2022-12-01T07:34:07.955Z,102191.50
2022-12-01T07:36:36.155Z,102179.19
2022-12-01T07:39:08.117Z,102168.81
2022-12-01T07:41:36.292Z,102170.44
2022-12-01T07:44:03.416Z,102156.84
2022-12-01T07:46:31.260Z,102159.31
2022-12-01T07:48:59.522Z,102164.03
2022-12-01T07:51:27.482Z,102169.56
2022-12-01T07:53:55.496Z,102167.03
2022-12-01T07:56:23.444Z,102156.88
2022-12-01T07:58:50.690Z,102139.09
2022-12-01T08:01:21.341Z,102164.16
2022-12-01T08:03:51.931Z,102156.06
2022-12-01T08:06:20.516Z,102151.41
2022-12-01T08:08:49.545Z,102113.44
2022-12-01T08:11:19.962Z,102131.06
2022-12-01T08:13:47.951Z,102107.31
2022-12-01T08:16:17.875Z,102137.19
2022-12-01T08:18:45.527Z,102134.66
2022-12-01T08:21:16.188Z,102122.56
2022-12-01T08:23:44.570Z,102114.09
2022-12-01T08:26:14.519Z,102130.63
2022-12-01T08:28:42.488Z,102114.50
2022-12-01T08:31:11.965Z,102106.88
2022-12-01T08:33:39.529Z,102107.06
2022-12-01T08:36:08.898Z,102095.19
2022-12-01T08:38:37.300Z,102115.34
2022-12-01T08:41:08.499Z,102110.66
2022-12-01T08:44:00.297Z,102110.69
2022-12-01T08:46:33.830Z,102131.88
2022-12-01T08:49:02.424Z,102109.72
2022-12-01T08:51:30.512Z,102084.66
2022-12-01T08:53:59.587Z,102088.34
2022-12-01T08:56:37.404Z,102090.41
2022-12-01T08:59:05.314Z,102101.84
2022-12-01T09:01:35.291Z,102073.38
2022-12-01T09:04:07.753Z,102089.72
2022-12-01T09:06:40.702Z,102066.53
2022-12-01T09:09:09.656Z,102067.56
2022-12-01T09:11:37.209Z,102081.16
2022-12-01T09:14:05.129Z,102081.34
2022-12-01T09:16:32.622Z,102040.56
2022-12-01T09:18:59.854Z,102063.19
2022-12-01T09:21:30.776Z,102079.94
2022-12-01T09:24:00.646Z,102081.56
2022-12-01T09:26:28.368Z,102064.38
2022-12-01T09:28:58.482Z,102084.75
2022-12-01T09:31:26.217Z,102064.38
2022-12-01T09:33:58.850Z,102058.75
2022-12-01T09:36:26.804Z,102058.84
2022-12-01T09:38:54.031Z,102065.41
2022-12-01T09:41:23.523Z,102064.03
2022-12-01T09:44:14.295Z,102017.81
2022-12-01T09:46:53.054Z,102063.47
2022-12-01T09:50:01.734Z,102038.34
2022-12-01T09:52:41.239Z,102046.00
2022-12-01T09:55:17.053Z,102040.31
2022-12-01T09:57:48.615Z,102045.38
2022-12-01T10:00:21.674Z,102035.66
2022-12-01T10:03:22.854Z,102040.19
2022-12-01T10:09:22.148Z,102014.69
2022-12-01T10:11:54.517Z,102026.22
2022-12-01T10:14:22.222Z,102028.47
2022-12-01T10:16:54.657Z,102018.56
2022-12-01T10:19:45.197Z,102039.63
2022-12-01T10:22:18.316Z,102007.22
2022-12-01T10:24:51.290Z,102013.66
2022-12-01T10:27:39.244Z,102029.34
2022-12-01T10:30:15.665Z,101995.63
2022-12-01T10:32:48.958Z,102005.22
2022-12-01T10:35:17.930Z,101999.22
2022-12-01T10:37:46.507Z,102006.47
2022-12-01T10:40:16.079Z,102000.94
2022-12-01T10:42:45.644Z,101998.69
2022-12-01T10:45:22.325Z,101986.69
2022-12-01T10:48:11.495Z,102006.31
2022-12-01T10:50:38.742Z,102009.06
2022-12-01T10:53:05.809Z,101999.47
2022-12-01T10:55:36.728Z,102008.91
2022-12-01T10:58:14.425Z,101983.78
2022-12-01T11:00:59.531Z,101998.72
2022-12-01T11:03:28.933Z,102005.63
2022-12-01T11:05:59.030Z,102000.56
2022-12-01T11:08:39.581Z,101991.34
2022-12-01T11:11:07.156Z,101991.66
2022-12-01T11:13:36.661Z,102012.53
2022-12-01T11:16:06.517Z,102008.09
2022-12-01T11:18:36.498Z,102019.78
2022-12-01T11:21:27.918Z,102000.72
2022-12-01T11:23:56.850Z,102023.19
2022-12-01T11:26:27.408Z,102015.94
2022-12-01T11:29:02.118Z,102031.78
2022-12-01T11:31:40.496Z,102026.09
2022-12-01T11:34:19.104Z,102010.19
2022-12-01T11:36:53.321Z,102018.97
2022-12-01T11:39:42.597Z,102036.66
2022-12-01T11:42:22.737Z,102011.44
2022-12-01T11:44:55.548Z,102012.66
2022-12-01T11:47:26.263Z,102031.47
2022-12-01T11:49:59.225Z,102024.31
2022-12-01T11:52:28.416Z,102020.41
2022-12-01T11:54:58.124Z,102022.94
2022-12-01T11:57:34.238Z,102015.34
2022-12-01T12:00:12.413Z,102029.88
2022-12-01T12:02:50.103Z,102034.72
2022-12-01T12:05:33.759Z,102024.25
2022-12-01T12:08:26.142Z,102027.00
2022-12-01T12:11:02.861Z,102027.00
2022-12-01T12:13:52.599Z,102026.88
2022-12-01T12:16:28.872Z,102029.56
2022-12-01T12:19:14.521Z,102029.34
2022-12-01T12:22:06.223Z,102035.44
2022-12-01T12:24:45.578Z,102039.34
2022-12-01T12:27:19.000Z,102067.91
2022-12-01T12:30:01.524Z,102026.03
2022-12-01T12:32:47.761Z,102033.66
2022-12-01T12:35:55.020Z,102044.00
2022-12-01T12:38:57.503Z,102030.31
2022-12-01T12:41:29.877Z,102032.09
2022-12-01T12:44:04.060Z,102033.47
2022-12-01T12:46:56.383Z,102022.34
2022-12-01T12:49:47.925Z,102041.41
2022-12-01T12:52:29.880Z,102041.09
2022-12-01T12:55:05.126Z,102034.41
2022-12-01T12:57:37.334Z,102037.38
2022-12-01T13:00:08.054Z,102039.47
2022-12-01T13:02:50.886Z,102040.94
2022-12-01T13:05:28.094Z,102028.84
2022-12-01T13:08:23.369Z,102031.50
2022-12-01T13:11:13.444Z,102035.16
2022-12-01T13:13:45.313Z,102037.94
2022-12-01T13:16:25.996Z,102054.66
2022-12-01T13:19:27.303Z,102023.53
2022-12-01T13:21:56.332Z,102020.56
2022-12-01T13:24:25.731Z,102033.81
2022-12-01T13:26:58.906Z,102033.09
2022-12-01T13:29:33.970Z,102030.16
2022-12-01T13:32:02.349Z,102035.41
2022-12-01T13:34:51.634Z,102060.47
2022-12-01T13:37:28.217Z,102036.66
2022-12-01T13:39:57.077Z,102046.25
2022-12-01T13:42:27.116Z,102051.88
2022-12-01T13:44:58.653Z,102050.69
2022-12-01T13:47:37.239Z,102059.59
2022-12-01T13:50:45.880Z,102067.84
2022-12-01T13:53:14.758Z,102042.44
2022-12-01T13:56:03.122Z,102064.66
2022-12-01T13:58:33.266Z,102062.66
2022-12-01T14:01:22.887Z,102067.63
2022-12-01T14:04:12.692Z,102044.72
2022-12-01T14:06:52.691Z,102027.09
2022-12-01T14:09:41.438Z,102067.88
2022-12-01T14:12:17.153Z,102057.88
2022-12-01T14:15:03.889Z,102060.22
2022-12-01T14:17:35.656Z,102057.53
2022-12-01T14:20:21.021Z,102048.09
2022-12-01T14:23:03.980Z,102074.13
2022-12-01T14:25:32.567Z,102041.38
2022-12-01T14:28:03.450Z,102043.44
2022-12-01T14:30:40.041Z,102072.34
2022-12-01T14:33:48.011Z,102039.91
2022-12-01T14:36:24.299Z,102055.59
2022-12-01T14:38:58.433Z,102052.47
2022-12-01T14:41:34.389Z,102058.81
2022-12-01T14:44:35.064Z,102067.44
2022-12-01T14:47:11.363Z,102070.41
2022-12-01T14:49:42.475Z,102074.31
2022-12-01T14:52:28.146Z,102081.31
2022-12-01T14:55:05.389Z,102054.22
2022-12-01T14:57:39.999Z,102056.75
2022-12-01T15:00:20.350Z,102058.03
2022-12-01T15:02:55.197Z,102079.63
2022-12-01T15:05:27.778Z,102063.34
2022-12-01T15:08:33.241Z,102046.19
2022-12-01T15:10:57.651Z,102041.31
2022-12-01T15:13:30.902Z,102076.28
2022-12-01T15:15:59.372Z,102061.81
2022-12-01T15:18:35.350Z,102075.38
2022-12-01T15:21:14.002Z,102076.03
2022-12-01T15:23:58.051Z,102049.91
2022-12-01T15:26:29.012Z,102062.91
2022-12-01T15:29:19.599Z,102071.19
2022-12-01T15:31:51.287Z,102098.34
2022-12-01T15:34:40.660Z,102076.31
2022-12-01T15:37:14.213Z,102069.91
2022-12-01T15:39:47.022Z,102029.00
2022-12-01T15:42:26.826Z,102077.16
2022-12-01T15:45:04.723Z,102056.19
2022-12-01T15:47:39.112Z,102052.56
2022-12-01T15:50:07.389Z,102065.25
2022-12-01T15:52:56.032Z,102065.72
2022-12-01T15:55:28.548Z,102087.56
2022-12-01T15:57:57.193Z,102054.72
2022-12-01T16:00:24.691Z,102058.31
2022-12-01T16:02:57.742Z,102079.53
2022-12-01T16:05:32.896Z,102076.78
2022-12-01T16:08:32.924Z,102075.47
2022-12-01T16:11:16.681Z,102076.31
2022-12-01T16:14:17.540Z,102076.97
2022-12-01T16:16:50.093Z,102072.50
2022-12-01T16:19:17.188Z,102069.78
2022-12-01T16:21:53.244Z,102064.66
2022-12-01T16:24:28.595Z,102099.22
2022-12-01T16:27:21.998Z,102069.09
2022-12-01T16:29:55.147Z,102061.44
2022-12-01T16:32:34.729Z,102060.41
2022-12-01T16:35:04.354Z,102067.44
2022-12-01T16:37:32.223Z,102054.94
2022-12-01T16:39:59.403Z,102056.19
2022-12-01T16:42:27.575Z,102046.88
2022-12-01T16:44:54.624Z,102061.28
2022-12-01T16:47:24.223Z,102054.50
2022-12-01T16:49:52.932Z,102057.22
2022-12-01T16:55:42.729Z,102031.34
2022-12-01T16:58:10.084Z,102038.13
2022-12-01T17:00:37.780Z,102059.13
2022-12-01T17:03:05.730Z,102036.44
2022-12-01T17:05:34.189Z,102050.88
2022-12-01T17:08:01.380Z,102054.94
2022-12-01T17:10:28.516Z,102047.50
2022-12-01T17:12:55.867Z,102043.22
2022-12-01T17:15:23.256Z,102057.41
2022-12-01T17:17:51.455Z,102063.59
2022-12-01T17:20:18.735Z,102048.75
2022-12-01T17:22:45.907Z,102053.41
2022-12-01T17:25:13.151Z,102057.81
2022-12-01T17:27:40.258Z,102047.88
2022-12-01T17:30:07.916Z,102034.06
2022-12-01T17:32:35.368Z,102051.94
2022-12-01T17:35:02.516Z,102063.34
2022-12-01T17:37:30.885Z,102041.31
2022-12-01T17:39:58.079Z,102029.69
2022-12-01T17:42:25.455Z,102038.41
2022-12-01T17:44:52.891Z,102052.56
2022-12-01T17:47:20.650Z,102045.13
2022-12-01T17:49:47.824Z,102031.13
2022-12-01T17:52:15.131Z,102060.03
2022-12-01T17:54:42.179Z,102041.78
2022-12-01T17:57:09.298Z,102034.78
2022-12-01T17:59:42.872Z,102066.16
2022-12-01T18:02:12.978Z,102059.03
2022-12-01T18:04:40.278Z,102034.69
2022-12-01T18:07:07.939Z,102052.97
2022-12-01T18:09:34.996Z,102045.09
2022-12-01T18:12:02.147Z,102062.53
2022-12-01T18:14:31.154Z,102048.56
2022-12-01T18:16:58.559Z,102041.16
2022-12-01T18:19:26.486Z,102061.06
2022-12-01T18:21:53.822Z,102037.75
2022-12-01T18:24:20.972Z,102036.66
2022-12-01T18:26:48.714Z,102034.56
2022-12-01T18:29:26.244Z,102064.50
2022-12-01T18:31:58.684Z,102047.50
2022-12-01T18:34:26.836Z,102051.09
2022-12-01T18:36:54.229Z,102044.53
2022-12-01T18:39:21.548Z,102063.19
2022-12-01T18:41:48.796Z,102026.75
2022-12-01T18:44:16.091Z,102031.41
2022-12-01T18:46:43.369Z,102039.44
2022-12-01T18:49:11.745Z,102021.00
2022-12-01T18:51:39.584Z,102015.94
2022-12-01T18:54:08.573Z,102020.59
2022-12-01T18:56:35.714Z,102018.91
2022-12-01T18:59:06.167Z,102019.50
2022-12-01T19:01:37.259Z,102048.72
2022-12-01T19:04:06.613Z,102024.16
2022-12-01T19:06:36.975Z,102014.22
2022-12-01T19:09:06.844Z,102048.75
2022-12-01T19:11:33.910Z,102019.06
2022-12-01T19:14:01.537Z,102041.13
2022-12-01T19:16:31.135Z,102035.53
2022-12-01T19:19:00.444Z,102033.03
2022-12-01T19:21:27.834Z,102032.59
2022-12-01T19:23:54.880Z,102031.03
2022-12-01T19:26:23.042Z,102024.88
2022-12-01T19:28:50.592Z,102032.72
2022-12-01T19:31:23.898Z,102048.06
2022-12-01T19:33:52.880Z,102027.56
2022-12-01T19:36:26.763Z,102022.97
2022-12-01T19:38:57.461Z,102010.47
2022-12-01T19:41:26.207Z,102034.25
2022-12-01T19:43:54.847Z,102002.59
2022-12-01T19:46:24.479Z,102030.31
2022-12-01T19:48:57.049Z,102025.75
2022-12-01T19:51:29.620Z,102004.97
2022-12-01T19:53:57.384Z,102008.97
2022-12-01T19:56:25.251Z,102043.25
2022-12-01T19:58:52.675Z,102020.72
2022-12-01T20:01:21.181Z,102031.25
2022-12-01T20:03:50.636Z,102037.31
2022-12-01T20:06:25.238Z,102031.91
2022-12-01T20:08:53.032Z,102042.69
2022-12-01T20:11:20.338Z,102028.50
2022-12-01T20:13:50.378Z,102005.25
2022-12-01T20:16:23.748Z,102029.31
2022-12-01T20:18:52.817Z,102031.56
2022-12-01T20:21:25.662Z,102029.25
2022-12-01T20:23:55.847Z,102014.25
2022-12-01T20:26:27.511Z,102051.50
2022-12-01T20:29:05.205Z,102036.69
2022-12-01T20:31:34.168Z,102018.09
2022-12-01T20:34:04.950Z,102027.03
2022-12-01T20:36:32.270Z,102031.97
2022-12-01T20:38:59.480Z,102027.94
2022-12-01T20:41:26.773Z,102019.31
2022-12-01T20:43:53.919Z,102011.22
2022-12-01T20:46:21.778Z,102011.47
2022-12-01T20:48:48.933Z,102019.84
2022-12-01T20:51:16.495Z,102017.28
2022-12-01T20:53:59.901Z,102032.00
2022-12-01T20:56:34.124Z,102018.81
2022-12-01T20:59:01.267Z,102020.28
2022-12-01T21:01:29.274Z,102021.84
2022-12-01T21:03:56.682Z,102024.47
2022-12-01T21:06:24.775Z,102019.63
2022-12-01T21:08:52.053Z,102026.63
2022-12-01T21:11:55.552Z,102027.44
2022-12-01T21:14:28.536Z,102028.69
2022-12-01T21:16:59.284Z,102015.59
2022-12-01T21:19:33.064Z,102023.84
2022-12-01T21:22:00.410Z,102018.22
2022-12-01T21:24:33.658Z,102021.56
2022-12-01T21:27:13.516Z,102029.38
2022-12-01T21:29:48.937Z,102039.19
2022-12-01T21:32:18.939Z,102027.66
2022-12-01T21:34:47.917Z,102021.91
2022-12-01T21:37:23.972Z,102027.16
2022-12-01T21:39:52.568Z,102013.31
2022-12-01T21:42:31.640Z,102007.41
2022-12-01T21:44:58.851Z,102009.75
2022-12-01T21:47:30.971Z,101997.13
2022-12-01T21:50:02.845Z,102019.25
2022-12-01T21:52:39.270Z,102009.41
2022-12-01T21:55:15.373Z,102015.91
2022-12-01T21:57:47.086Z,102006.59
2022-12-01T22:00:35.972Z,101998.38
2022-12-01T22:03:10.081Z,102010.56
2022-12-01T22:05:38.205Z,101995.03
2022-12-01T22:08:14.414Z,102000.22
2022-12-01T22:11:03.353Z,102021.59
2022-12-01T22:13:46.642Z,101986.06
2022-12-01T22:16:41.286Z,101993.97
2022-12-01T22:19:26.975Z,102000.25
2022-12-01T22:21:58.347Z,102002.69
2022-12-01T22:24:41.218Z,101991.47
2022-12-01T22:27:28.500Z,101971.63
2022-12-01T22:30:01.782Z,101982.56
2022-12-01T22:32:40.336Z,101989.44
2022-12-01T22:35:10.323Z,101995.03
2022-12-01T22:37:45.081Z,101981.72
2022-12-01T22:41:01.655Z,101988.25
2022-12-01T22:43:30.183Z,101973.91
2022-12-01T22:46:21.127Z,101973.78
2022-12-01T22:48:57.308Z,101976.00
2022-12-01T22:51:28.141Z,101981.34
2022-12-01T22:54:00.454Z,101952.88
2022-12-01T22:56:30.519Z,101967.75
2022-12-01T22:58:57.582Z,101979.78
2022-12-01T23:01:34.320Z,101977.38
2022-12-01T23:04:23.703Z,101969.41
2022-12-01T23:07:11.066Z,101967.16
2022-12-01T23:09:40.876Z,101950.72
2022-12-01T23:12:10.993Z,101998.03
2022-12-01T23:14:44.928Z,101978.16
2022-12-01T23:17:32.921Z,101965.47
2022-12-01T23:20:20.235Z,101973.31
2022-12-01T23:22:48.560Z,101969.53
2022-12-01T23:25:18.671Z,101986.00
2022-12-01T23:27:48.655Z,101992.53
2022-12-01T23:30:18.430Z,101979.88
2022-12-01T23:32:48.386Z,101967.09
2022-12-01T23:35:18.248Z,101968.44
2022-12-01T23:37:48.328Z,101989.28
2022-12-01T23:40:35.393Z,101982.34
2022-12-01T23:43:17.337Z,101964.72
2022-12-01T23:45:45.972Z,101970.78
2022-12-01T23:48:25.281Z,101989.69
2022-12-01T23:50:54.603Z,101972.41
2022-12-01T23:53:29.198Z,101946.69
2022-12-01T23:56:01.513Z,101963.13
2022-12-01T23:58:28.745Z,101949.69
